Terminal Aerodrome Forecast
Issued by NWS Sterling, VA

Current Version | Previous Version | Text Only | Print | Product List | Glossary Off
Versions: 1 2 3 4 5 6 7 8 9 10 11 12 13 14 15 16 17 18 19 20 21

000
FTUS41 KLWX 231720
TAFDCA
TAF
KDCA 231720Z 2318/2418 30015G27KT P6SM BKN080
     FM240000 29010KT P6SM BKN060
     FM240400 32007KT P6SM SCT090
     FM241400 30015G23KT P6SM FEW250=

USA.gov is the U.S. government's official web portal to all federal, state and local government web resources and services.